Time;durP1;ratioP1;P1;durP2;ratioP2;P2;SDS_P1;SDS_P2;PMS_P1;PMS_P2;Temp;Humidity;BMP_temperature;BMP_pressure;BME280_temperature;BME280_humidity;BME280_pressure;Samples;Min_cycle;Max_cycle;Signal;HPM_P1;HPM_P2
2022/10/11 00:00:14;;;;;;;7.93;5.93;;;;;;;17.19;73.67;101684.81;2094649;28;20044;-73
2022/10/11 00:01:37;;;;;;;8.57;6.07;;;;;;;17.15;73.65;101683.00;2096310;28;20062;-73
2022/10/11 00:02:59;;;;;;;10.32;5.57;;;;;;;17.13;73.52;101684.78;2092535;28;20052;-73
2022/10/11 00:04:22;;;;;;;8.98;6.13;;;;;;;17.11;73.64;101686.56;2101393;28;20071;-73
2022/10/11 00:05:44;;;;;;;8.90;5.45;;;;;;;17.11;73.69;101683.88;2088107;28;20033;-73
2022/10/11 00:07:06;;;;;;;8.77;5.93;;;;;;;17.12;73.65;101683.91;2086059;28;20045;-74
2022/10/11 00:08:29;;;;;;;9.27;5.80;;;;;;;17.10;73.54;101679.44;2077941;28;21119;-73
2022/10/11 00:09:53;;;;;;;10.27;5.93;;;;;;;17.10;73.45;101688.34;2089141;28;20048;-73
2022/10/11 00:11:15;;;;;;;10.63;6.15;;;;;;;17.08;73.37;101691.88;2083114;28;20546;-73
2022/10/11 00:12:37;;;;;;;12.25;6.03;;;;;;;17.05;73.46;101687.44;2081870;28;20140;-73
2022/10/11 00:13:58;;;;;;;11.23;5.75;;;;;;;17.05;73.55;101682.09;2083191;28;20134;-73
2022/10/11 00:15:22;;;;;;;9.43;6.18;;;;;;;17.06;73.48;101694.56;2084697;28;20115;-73
2022/10/11 00:16:44;;;;;;;9.85;5.95;;;;;;;17.05;73.68;101686.53;2090461;28;20040;-74
2022/10/11 00:18:07;;;;;;;11.60;6.15;;;;;;;17.05;73.77;101684.75;2093788;28;20083;-73
2022/10/11 00:19:30;;;;;;;10.55;6.13;;;;;;;17.06;73.76;101680.31;2090800;28;20033;-74
2022/10/11 00:21:02;;;;;;;9.95;6.00;;;;;;;17.07;73.98;101679.41;2085099;28;20084;-74
2022/10/11 00:22:24;;;;;;;10.87;6.90;;;;;;;17.05;73.93;101686.53;2100888;28;20399;-74
2022/10/11 00:23:46;;;;;;;10.63;5.97;;;;;;;17.03;74.04;101685.63;2102753;28;20303;-73
2022/10/11 00:25:12;;;;;;;9.75;5.47;;;;;;;16.99;73.86;101675.84;2087005;28;20052;-73
2022/10/11 00:26:34;;;;;;;8.07;5.25;;;;;;;16.93;73.80;101681.16;2089467;28;20052;-73
2022/10/11 00:27:56;;;;;;;8.65;5.40;;;;;;;16.90;73.80;101681.13;2077337;28;20049;-73
2022/10/11 00:29:18;;;;;;;10.07;5.85;;;;;;;16.88;73.77;101677.56;2085993;28;20040;-73
2022/10/11 00:30:43;;;;;;;10.25;6.05;;;;;;;16.87;73.93;101670.47;2092041;28;20468;-73
2022/10/11 00:32:06;;;;;;;9.30;6.00;;;;;;;16.87;74.12;101670.47;2093297;28;20060;-73
2022/10/11 00:33:27;;;;;;;11.95;6.07;;;;;;;16.87;74.24;101668.66;2100074;28;20451;-73
2022/10/11 00:34:51;;;;;;;7.97;5.75;;;;;;;16.87;74.16;101670.47;2078953;28;20453;-73
2022/10/11 00:36:15;;;;;;;9.13;6.05;;;;;;;16.88;74.35;101672.22;2097691;28;20044;-73
2022/10/11 00:37:39;;;;;;;11.68;6.10;;;;;;;16.88;74.40;101669.56;2095783;28;20052;-73
2022/10/11 00:39:00;;;;;;;13.20;5.85;;;;;;;16.89;74.25;101666.00;2099996;28;20048;-73
2022/10/11 00:40:25;;;;;;;10.50;5.90;;;;;;;16.88;74.25;101662.44;2086151;28;20041;-73
2022/10/11 00:41:48;;;;;;;8.50;5.40;;;;;;;16.86;74.04;101664.22;2090353;28;20102;-73
2022/10/11 00:43:24;;;;;;;11.68;5.65;;;;;;;16.85;73.90;101665.13;2084623;28;20037;-73
2022/10/11 00:44:48;;;;;;;8.60;5.60;;;;;;;16.82;74.03;101665.09;2085258;28;20044;-74
2022/10/11 00:46:30;;;;;;;8.48;5.80;;;;;;;16.80;73.82;101665.97;2098920;28;20151;-73
2022/10/11 00:47:53;;;;;;;10.20;5.60;;;;;;;16.77;73.89;101671.28;2077750;28;20556;-74
2022/10/11 00:49:22;;;;;;;9.98;5.60;;;;;;;16.78;74.04;101670.41;2083795;28;20051;-74
2022/10/11 00:50:44;;;;;;;10.02;6.53;;;;;;;16.78;74.14;101673.06;2085924;28;20627;-73
2022/10/11 00:52:14;;;;;;;8.18;5.32;;;;;;;16.79;74.18;101664.19;2091146;28;20044;-74
2022/10/11 00:53:36;;;;;;;9.75;5.78;;;;;;;16.79;74.26;101666.88;2084969;28;20052;-74
2022/10/11 00:55:03;;;;;;;8.80;5.78;;;;;;;16.78;74.19;101665.06;2097720;28;20054;-74
2022/10/11 00:56:30;;;;;;;8.82;5.32;;;;;;;16.75;74.18;101660.59;2095549;28;20067;-74
2022/10/11 00:57:53;;;;;;;9.88;6.00;;;;;;;16.74;74.42;101654.38;2094516;28;20536;-73
2022/10/11 00:59:20;;;;;;;10.32;5.75;;;;;;;16.77;74.66;101652.63;2087411;28;20090;-74
2022/10/11 01:00:43;;;;;;;9.95;6.53;;;;;;;16.77;74.93;101648.19;2099299;28;20103;-74
2022/10/11 01:02:05;;;;;;;10.27;6.05;;;;;;;16.81;75.03;101641.06;2095217;28;20097;-74
2022/10/11 01:03:31;;;;;;;9.68;6.07;;;;;;;16.84;75.42;101647.31;2094907;28;20059;-73
2022/10/11 01:04:54;;;;;;;12.48;6.97;;;;;;;16.88;75.53;101648.22;2092149;28;20047;-74
2022/10/11 01:06:15;;;;;;;12.60;6.38;;;;;;;16.89;75.64;101642.00;2085769;28;20144;-73
2022/10/11 01:07:39;;;;;;;9.32;5.93;;;;;;;16.89;75.78;101642.88;2090363;28;20569;-73
2022/10/11 01:09:01;;;;;;;12.02;6.55;;;;;;;16.90;75.79;101642.00;2096096;28;20499;-74
2022/10/11 01:10:23;;;;;;;9.95;5.78;;;;;;;16.92;75.83;101642.03;2091509;28;20409;-73
2022/10/11 01:11:48;;;;;;;10.30;5.90;;;;;;;16.92;75.75;101632.25;2085776;28;20052;-74
2022/10/11 01:13:27;;;;;;;11.02;6.25;;;;;;;16.88;75.47;101634.88;2096254;28;20101;-73
2022/10/11 01:15:11;;;;;;;10.02;5.63;;;;;;;16.84;75.21;101641.09;2085063;28;20087;-72
2022/10/11 01:16:37;;;;;;;11.80;6.30;;;;;;;16.81;75.20;101644.63;2086009;28;20064;-72
2022/10/11 01:18:04;;;;;;;10.65;5.97;;;;;;;16.79;75.15;101641.09;2081991;28;20048;-72
2022/10/11 01:20:03;;;;;;;13.50;6.45;;;;;;;16.78;75.28;101633.97;2081618;28;20255;-72
2022/10/11 01:21:38;;;;;;;9.25;6.45;;;;;;;16.73;75.15;101625.06;2096423;28;20574;-72
2022/10/11 01:23:48;;;;;;;9.60;5.93;;;;;;;16.66;75.03;101626.81;2079598;28;20537;-72
2022/10/11 01:25:22;;;;;;;10.93;6.15;;;;;;;16.64;75.15;101625.00;2098765;28;20067;-72
2022/10/11 01:27:24;;;;;;;10.13;5.93;;;;;;;16.63;75.29;101624.13;2091102;28;20037;-73
2022/10/11 01:28:51;;;;;;;9.73;6.07;;;;;;;16.61;75.43;101620.53;2088969;28;20053;-72
2022/10/11 01:30:30;;;;;;;12.45;6.63;;;;;;;16.63;75.60;101623.22;2078982;28;20064;-73
2022/10/11 01:31:59;;;;;;;10.18;6.38;;;;;;;16.65;75.84;101622.34;2094244;28;20145;-72
2022/10/11 01:33:30;;;;;;;8.50;6.53;;;;;;;16.69;76.16;101618.81;2101310;28;20044;-72
2022/10/11 01:34:57;;;;;;;11.55;6.10;;;;;;;16.75;76.34;101617.94;2086343;28;20140;-72
2022/10/11 01:36:28;;;;;;;9.95;6.80;;;;;;;16.82;76.78;101618.84;2091775;28;20044;-72
2022/10/11 01:37:58;;;;;;;11.30;6.57;;;;;;;16.88;77.02;101624.22;2085625;28;20052;-73
2022/10/11 01:39:29;;;;;;;13.55;7.25;;;;;;;16.94;77.45;101624.22;2069933;28;20049;-72
2022/10/11 01:40:57;;;;;;;10.15;6.38;;;;;;;16.96;77.32;101623.34;2089661;28;20087;-72
2022/10/11 01:42:21;;;;;;;10.90;6.70;;;;;;;16.94;77.10;101621.56;2085115;28;20055;-72
2022/10/11 01:43:44;;;;;;;11.10;6.63;;;;;;;16.90;76.87;101620.66;2099083;28;20055;-73
2022/10/11 01:45:11;;;;;;;9.35;6.22;;;;;;;16.89;76.61;101620.66;2098668;28;20090;-72
2022/10/11 01:46:37;;;;;;;10.20;6.43;;;;;;;16.87;76.63;101617.13;2084799;28;20061;-72
2022/10/11 01:48:04;;;;;;;9.75;6.68;;;;;;;16.86;76.59;101618.88;2091000;28;20040;-72
2022/10/11 01:49:27;;;;;;;9.27;5.95;;;;;;;16.85;76.75;101622.44;2091272;28;20147;-72
2022/10/11 01:50:52;;;;;;;11.75;6.35;;;;;;;16.86;76.66;101624.22;2083974;28;20386;-73
2022/10/11 01:52:13;;;;;;;11.15;6.43;;;;;;;16.84;76.57;101622.44;2089517;28;20052;-73
2022/10/11 01:54:08;;;;;;;11.80;6.70;;;;;;;16.80;76.59;101620.66;2084562;28;20045;-74
2022/10/11 01:55:41;;;;;;;11.02;6.15;;;;;;;16.77;76.63;101621.50;2085900;28;20080;-73
2022/10/11 01:57:40;;;;;;;13.15;5.85;;;;;;;16.79;76.89;101626.84;2101134;28;20309;-74
2022/10/11 01:59:18;;;;;;;9.57;6.10;;;;;;;16.80;77.17;101620.66;2088870;28;20056;-73
2022/10/11 02:00:50;;;;;;;10.73;6.75;;;;;;;16.85;77.27;101616.22;2089275;28;20071;-73
2022/10/11 02:02:28;;;;;;;11.25;6.40;;;;;;;16.86;77.35;101616.22;2082047;28;20045;-73
2022/10/11 02:04:02;;;;;;;9.07;6.22;;;;;;;16.84;77.15;101611.75;2094924;28;20079;-74
2022/10/11 02:05:34;;;;;;;12.40;6.82;;;;;;;16.81;77.05;101611.72;2096144;28;20102;-73
2022/10/11 02:07:02;;;;;;;10.10;5.88;;;;;;;16.78;76.98;101612.63;2071950;28;20097;-73
2022/10/11 02:08:34;;;;;;;10.90;6.20;;;;;;;16.78;77.00;101609.06;2089612;28;20060;-73
2022/10/11 02:10:02;;;;;;;12.45;6.43;;;;;;;16.78;76.96;101606.41;2086590;28;20125;-73
2022/10/11 02:11:27;;;;;;;10.70;7.03;;;;;;;16.78;77.22;101609.06;2086314;28;20071;-73
2022/10/11 02:12:54;;;;;;;14.77;6.78;;;;;;;16.83;77.37;101610.88;2092887;28;20560;-72
2022/10/11 02:14:20;;;;;;;9.40;6.30;;;;;;;16.83;77.40;101605.53;2094064;28;20131;-73
2022/10/11 02:15:45;;;;;;;10.48;6.38;;;;;;;16.82;77.32;101608.19;2085721;28;20044;-73
2022/10/11 02:17:12;;;;;;;9.35;5.82;;;;;;;16.77;77.01;101608.19;2082031;28;20127;-73
2022/10/11 02:18:42;;;;;;;10.27;6.38;;;;;;;16.70;76.64;101614.38;2084324;28;20043;-73
2022/10/11 02:20:09;;;;;;;8.15;5.82;;;;;;;16.66;76.37;101605.47;2084822;28;20088;-72
2022/10/11 02:21:34;;;;;;;8.65;6.00;;;;;;;16.63;76.22;101613.44;2085837;28;20131;-73
2022/10/11 02:23:02;;;;;;;12.38;6.68;;;;;;;16.61;76.04;101615.22;2083681;28;20040;-73
2022/10/11 02:24:27;;;;;;;11.07;6.28;;;;;;;16.59;75.95;101608.97;2092993;28;20052;-72
2022/10/11 02:25:52;;;;;;;10.15;6.65;;;;;;;16.58;75.88;101606.28;2103379;28;20044;-73
2022/10/11 02:27:16;;;;;;;10.75;7.50;;;;;;;16.59;75.82;101608.97;2095581;28;20143;-73
2022/10/11 02:28:42;;;;;;;10.15;6.22;;;;;;;16.60;76.04;101617.88;2088677;28;20428;-73
2022/10/11 02:30:06;;;;;;;13.38;6.35;;;;;;;16.62;76.24;101609.00;2094642;28;20090;-73
2022/10/11 02:31:30;;;;;;;9.73;6.60;;;;;;;16.66;76.42;101607.25;2092044;28;20844;-73
2022/10/11 02:32:55;;;;;;;9.68;7.25;;;;;;;16.67;76.60;101607.22;2085914;28;20071;-73
2022/10/11 02:34:24;;;;;;;11.55;6.43;;;;;;;16.70;76.53;101609.03;2090801;28;20036;-72
2022/10/11 02:35:52;;;;;;;10.55;6.60;;;;;;;16.71;76.51;101610.81;2087067;28;20132;-73
2022/10/11 02:37:23;;;;;;;10.05;6.45;;;;;;;16.72;76.27;101612.59;2086838;28;20048;-72
2022/10/11 02:38:51;;;;;;;11.18;6.88;;;;;;;16.69;76.27;101617.91;2102782;28;20126;-73
2022/10/11 02:40:20;;;;;;;12.18;6.55;;;;;;;16.64;76.45;101617.91;2095117;28;20051;-73
2022/10/11 02:41:42;;;;;;;11.57;6.75;;;;;;;16.63;76.41;101616.13;2088386;28;20044;-73
2022/10/11 02:43:07;;;;;;;;;;;;;;;16.60;76.30;101616.13;2100997;28;20539;-73
2022/10/11 02:44:36;;;;;;;8.52;6.03;;;;;;;16.60;76.38;101620.56;2088079;28;19921;-73
2022/10/11 02:45:59;;;;;;;9.75;6.30;;;;;;;16.60;76.22;101626.78;2088920;28;20052;-73
2022/10/11 02:47:22;;;;;;;13.63;6.82;;;;;;;16.59;76.14;101618.75;2085789;28;20125;-73
2022/10/11 02:48:45;;;;;;;13.40;7.05;;;;;;;16.57;76.02;101620.50;2086219;28;20058;-72
2022/10/11 02:50:10;;;;;;;9.98;6.60;;;;;;;16.59;76.01;101616.06;2098824;28;20280;-72
2022/10/11 02:51:34;;;;;;;11.45;6.55;;;;;;;16.59;76.23;101619.63;2087819;28;20540;-73
2022/10/11 02:52:56;;;;;;;9.75;6.50;;;;;;;16.60;76.45;101624.13;2102789;28;20044;-73
2022/10/11 02:54:19;;;;;;;11.48;6.55;;;;;;;16.61;76.66;101620.53;2095947;28;20071;-73
2022/10/11 02:55:40;;;;;;;9.63;6.75;;;;;;;16.62;76.66;101624.09;2096573;28;20050;-73
2022/10/11 02:57:03;;;;;;;15.23;7.72;;;;;;;16.62;76.72;101621.44;2086584;28;20049;-73
2022/10/11 02:58:25;;;;;;;13.32;7.10;;;;;;;16.62;76.67;101622.31;2094057;28;20044;-72
2022/10/11 02:59:47;;;;;;;12.05;6.82;;;;;;;16.62;76.71;101621.44;2085532;28;20049;-73
2022/10/11 03:01:10;;;;;;;12.38;7.00;;;;;;;16.60;76.55;101626.78;2098829;28;20043;-73
2022/10/11 03:02:31;;;;;;;11.68;6.60;;;;;;;16.58;76.48;101624.94;2080835;28;20037;-73
2022/10/11 03:03:54;;;;;;;12.10;6.97;;;;;;;16.57;76.45;101629.38;2088263;28;20575;-73
2022/10/11 03:05:17;;;;;;;11.70;7.32;;;;;;;16.56;76.44;101626.69;2085808;28;20107;-73
2022/10/11 03:06:40;;;;;;;12.10;8.10;;;;;;;16.53;76.45;101632.94;2090651;28;20064;-73
2022/10/11 03:08:01;;;;;;;10.13;7.43;;;;;;;16.52;76.43;101636.47;2092166;28;20099;-73
2022/10/11 03:09:24;;;;;;;10.13;6.57;;;;;;;16.50;76.22;101634.66;2089017;28;20052;-72
2022/10/11 03:10:45;;;;;;;13.95;7.72;;;;;;;16.49;76.48;101635.56;2093564;28;20049;-72
2022/10/11 03:12:08;;;;;;;11.68;7.43;;;;;;;16.49;76.64;101630.22;2088936;28;20157;-72
2022/10/11 03:13:30;;;;;;;12.90;7.53;;;;;;;16.50;76.80;101626.69;2090189;28;20135;-73
2022/10/11 03:14:53;;;;;;;12.45;7.50;;;;;;;16.52;77.00;101619.59;2091932;28;20097;-72
2022/10/11 03:16:16;;;;;;;11.10;7.22;;;;;;;16.53;77.10;101624.03;2092475;28;20055;-72
2022/10/11 03:17:37;;;;;;;9.70;6.60;;;;;;;16.53;77.18;101621.38;2085320;28;20047;-73
2022/10/11 03:18:59;;;;;;;10.70;7.22;;;;;;;16.53;77.26;101627.59;2091054;28;20122;-72
2022/10/11 03:20:23;;;;;;;13.70;7.40;;;;;;;16.55;77.27;101632.91;2091612;28;20588;-72
2022/10/11 03:21:46;;;;;;;10.95;6.90;;;;;;;16.53;77.26;101632.94;2093948;28;20048;-72
2022/10/11 03:23:09;;;;;;;13.23;8.13;;;;;;;16.51;77.26;101629.34;2085517;28;20041;-73
2022/10/11 03:24:30;;;;;;;10.32;6.80;;;;;;;16.49;77.17;101640.88;2090974;28;20131;-72
2022/10/11 03:25:53;;;;;;;11.73;7.07;;;;;;;16.46;77.02;101644.44;2080602;28;20041;-72
2022/10/11 03:27:15;;;;;;;12.20;7.40;;;;;;;16.43;76.92;101641.75;2078000;28;20128;-72
2022/10/11 03:28:36;;;;;;;13.45;7.75;;;;;;;16.40;76.82;101641.75;2089274;28;20095;-73
2022/10/11 03:29:59;;;;;;;12.57;7.20;;;;;;;16.38;76.80;101643.50;2088512;28;20710;-73
2022/10/11 03:31:22;;;;;;;9.82;7.50;;;;;;;16.37;76.80;101646.16;2093301;28;20415;-72
2022/10/11 03:32:43;;;;;;;11.38;7.53;;;;;;;16.35;76.82;101639.03;2079808;28;20045;-73
2022/10/11 03:34:06;;;;;;;11.57;7.72;;;;;;;16.34;76.85;101636.38;2087171;28;20041;-72
2022/10/11 03:35:29;;;;;;;13.02;6.85;;;;;;;16.33;76.89;101634.59;2095461;28;20052;-72
2022/10/11 03:36:52;;;;;;;11.18;7.00;;;;;;;16.32;77.04;101635.47;2094217;28;20611;-73
2022/10/11 03:38:17;;;;;;;12.02;7.03;;;;;;;16.33;77.15;101634.59;2076715;28;20076;-73
2022/10/11 03:39:38;;;;;;;11.98;7.22;;;;;;;16.31;77.30;101634.56;2088991;28;20044;-73
2022/10/11 03:41:01;;;;;;;9.30;7.22;;;;;;;16.31;77.46;101642.56;2083306;28;20053;-73
2022/10/11 03:42:23;;;;;;;11.38;8.10;;;;;;;16.31;77.61;101637.25;2091083;28;20575;-72
2022/10/11 03:43:46;;;;;;;10.40;7.57;;;;;;;16.34;77.65;101636.38;2083827;28;20073;-73
2022/10/11 03:45:09;;;;;;;9.30;7.57;;;;;;;16.31;77.59;101631.91;2088210;28;20098;-73
2022/10/11 03:46:35;;;;;;;13.52;7.75;;;;;;;16.29;77.50;101632.78;2081419;28;20636;-73
2022/10/11 03:47:56;;;;;;;10.40;7.57;;;;;;;16.27;77.47;101626.56;2091605;28;20068;-73
2022/10/11 03:49:19;;;;;;;10.25;7.00;;;;;;;16.24;77.36;101632.75;2078334;28;20069;-73
2022/10/11 03:50:43;;;;;;;11.65;8.15;;;;;;;16.23;77.24;101625.63;2094224;28;20501;-72
2022/10/11 03:52:05;;;;;;;10.57;7.30;;;;;;;16.23;77.25;101627.41;2088432;28;20064;-73
2022/10/11 03:53:28;;;;;;;13.63;7.20;;;;;;;16.21;77.39;101621.19;2091599;28;20052;-72
2022/10/11 03:54:50;;;;;;;12.02;7.53;;;;;;;16.21;77.49;101626.53;2088534;28;20643;-72
2022/10/11 03:56:13;;;;;;;12.82;7.22;;;;;;;16.21;77.50;101626.53;2084293;28;20083;-73
2022/10/11 03:57:35;;;;;;;13.15;7.45;;;;;;;16.20;77.51;101628.28;2085964;28;20764;-73
2022/10/11 03:58:57;;;;;;;8.75;6.97;;;;;;;16.18;77.54;101627.38;2095769;28;20080;-73
2022/10/11 04:00:19;;;;;;;12.60;7.53;;;;;;;16.16;77.48;101625.56;2089425;28;20080;-73
2022/10/11 04:01:41;;;;;;;11.48;7.68;;;;;;;16.16;77.43;101622.91;2084091;28;20760;-73
2022/10/11 04:03:03;;;;;;;9.05;6.43;;;;;;;16.16;77.46;101625.56;2083463;28;20052;-73
2022/10/11 04:04:25;;;;;;;12.00;7.50;;;;;;;16.14;77.48;101630.03;2080761;28;20037;-73
2022/10/11 04:05:50;;;;;;;10.23;7.30;;;;;;;16.15;77.55;101631.78;2076225;28;20416;-73
2022/10/11 04:07:11;;;;;;;10.95;7.10;;;;;;;16.12;77.66;101630.00;2089598;28;20052;-72
2022/10/11 04:08:33;;;;;;;11.80;7.10;;;;;;;16.13;77.65;101630.91;2089999;28;20634;-72
2022/10/11 04:09:55;;;;;;;10.88;7.32;;;;;;;16.13;77.63;101637.13;2088697;28;20110;-72
2022/10/11 04:11:17;;;;;;;9.85;7.20;;;;;;;16.12;77.64;101635.34;2085518;28;20079;-73
2022/10/11 04:12:39;;;;;;;13.48;7.95;;;;;;;16.10;77.88;101633.53;2089237;28;20041;-72
2022/10/11 04:14:02;;;;;;;12.23;8.07;;;;;;;16.09;77.70;101635.31;2094034;28;20052;-72
2022/10/11 04:15:24;;;;;;;13.15;7.68;;;;;;;16.10;77.73;101628.19;2088517;28;20057;-72
2022/10/11 04:16:46;;;;;;;12.32;7.57;;;;;;;16.09;77.82;101629.97;2093622;28;20068;-73
2022/10/11 04:18:09;;;;;;;12.25;7.78;;;;;;;16.09;77.82;101627.31;2101717;28;20048;-73
2022/10/11 04:19:32;;;;;;;9.80;7.22;;;;;;;16.08;77.67;101628.19;2104989;28;20095;-73
2022/10/11 04:20:55;;;;;;;11.35;7.35;;;;;;;16.06;77.49;101623.75;2086369;28;20145;-73
2022/10/11 04:22:17;;;;;;;12.73;8.38;;;;;;;16.05;77.38;101625.53;2090199;28;20519;-72
2022/10/11 04:23:38;;;;;;;12.63;7.72;;;;;;;16.04;77.32;101621.06;2092572;28;20049;-73
2022/10/11 04:25:02;;;;;;;12.98;8.05;;;;;;;16.05;77.32;101616.63;2085993;28;20049;-73
2022/10/11 04:26:23;;;;;;;9.80;7.28;;;;;;;16.07;77.52;101620.22;2085333;28;20051;-72
2022/10/11 04:27:45;;;;;;;13.60;7.90;;;;;;;16.09;77.53;101621.97;2078503;28;20536;-73
2022/10/11 04:29:08;;;;;;;10.10;7.07;;;;;;;16.10;77.69;101621.09;2081487;28;20045;-72
2022/10/11 04:30:30;;;;;;;12.75;7.60;;;;;;;16.14;77.65;101622.03;2085260;28;20534;-73
2022/10/11 04:31:53;;;;;;;11.77;7.32;;;;;;;16.14;77.66;101625.59;2082171;28;20064;-73
2022/10/11 04:33:16;;;;;;;12.68;7.75;;;;;;;16.17;77.67;101622.03;2083012;28;20227;-73
2022/10/11 04:34:38;;;;;;;10.55;7.63;;;;;;;16.19;77.68;101623.84;2088559;28;20451;-72
2022/10/11 04:36:02;;;;;;;12.95;7.80;;;;;;;16.22;77.74;101630.94;2099441;28;20122;-72
2022/10/11 04:37:24;;;;;;;11.40;7.85;;;;;;;16.23;77.70;101630.97;2088406;28;20489;-73
2022/10/11 04:38:46;;;;;;;10.18;7.15;;;;;;;16.24;77.62;101626.53;2097331;28;20427;-72
2022/10/11 04:40:10;;;;;;;13.00;7.28;;;;;;;16.25;77.68;101623.88;2090487;28;20062;-73
2022/10/11 04:41:32;;;;;;;12.27;7.22;;;;;;;16.27;77.64;101630.13;2082781;28;20053;-73
2022/10/11 04:42:55;;;;;;;10.35;7.53;;;;;;;16.29;77.67;101627.44;2090326;28;20040;-73
2022/10/11 04:44:17;;;;;;;12.20;7.50;;;;;;;16.32;77.62;101632.81;2086348;28;20044;-73
2022/10/11 04:45:40;;;;;;;13.13;7.90;;;;;;;16.35;77.62;101631.03;2088594;28;20036;-72
2022/10/11 04:47:02;;;;;;;12.52;7.75;;;;;;;16.39;77.66;101631.97;2081116;28;20063;-73
2022/10/11 04:48:24;;;;;;;11.80;7.03;;;;;;;16.43;77.60;101636.41;2082913;28;20131;-73
2022/10/11 04:49:46;;;;;;;9.00;6.68;;;;;;;16.46;77.50;101631.13;2085394;28;20072;-72
2022/10/11 04:51:09;;;;;;;10.15;6.63;;;;;;;16.51;77.37;101633.78;2092205;28;20044;-73
2022/10/11 04:52:32;;;;;;;11.43;6.78;;;;;;;16.54;77.32;101624.03;2094040;28;20534;-73
2022/10/11 04:53:54;;;;;;;11.60;6.93;;;;;;;16.62;77.29;101626.75;2087889;28;20587;-73
2022/10/11 04:55:17;;;;;;;10.40;6.60;;;;;;;16.67;77.22;101619.72;2084457;28;20505;-73
2022/10/11 04:56:39;;;;;;;10.65;7.28;;;;;;;16.73;77.15;101622.41;2086254;28;20047;-73
2022/10/11 04:58:01;;;;;;;14.40;6.80;;;;;;;16.84;77.38;101633.09;2082426;28;20053;-73
2022/10/11 04:59:23;;;;;;;12.75;7.57;;;;;;;16.97;77.85;101630.47;2082423;28;20071;-73
2022/10/11 05:00:46;;;;;;;13.02;6.38;;;;;;;17.14;78.17;101634.06;2090358;28;20048;-73
2022/10/11 05:02:08;;;;;;;9.98;6.50;;;;;;;17.29;78.32;101627.88;2083110;28;20037;-73
2022/10/11 05:03:30;;;;;;;10.50;5.85;;;;;;;17.47;78.48;101627.03;2088301;28;20057;-73
2022/10/11 05:04:52;;;;;;;10.32;6.15;;;;;;;17.64;78.43;101629.75;2084837;28;20091;-73
2022/10/11 05:06:16;;;;;;;10.77;6.20;;;;;;;17.81;78.49;101633.31;2089988;28;20049;-73
2022/10/11 05:07:37;;;;;;;8.75;5.93;;;;;;;17.96;78.28;101629.75;2085145;28;20424;-73
2022/10/11 05:09:00;;;;;;;17.10;5.63;;;;;;;18.10;77.99;101641.31;2091277;28;20049;-73
2022/10/11 05:10:23;;;;;;;11.10;5.65;;;;;;;18.22;77.64;101631.50;2091034;28;20040;-73
2022/10/11 05:11:44;;;;;;;11.38;5.22;;;;;;;18.32;77.15;101633.25;2092802;28;20047;-73
2022/10/11 05:13:07;;;;;;;11.70;5.82;;;;;;;18.40;76.29;101635.00;2093969;28;20508;-73
2022/10/11 05:14:30;;;;;;;11.75;6.10;;;;;;;18.45;75.79;101634.09;2097249;28;20564;-73
2022/10/11 05:15:52;;;;;;;10.15;5.32;;;;;;;18.51;75.38;101643.91;2086093;28;20509;-73
2022/10/11 05:17:15;;;;;;;9.55;5.07;;;;;;;18.55;75.09;101641.25;2083095;28;20073;-73
2022/10/11 05:18:37;;;;;;;9.40;5.57;;;;;;;18.58;74.75;101629.63;2082460;28;20048;-73
2022/10/11 05:20:00;;;;;;;7.40;4.80;;;;;;;18.59;74.51;101637.66;2097730;28;20063;-74
2022/10/11 05:21:26;;;;;;;8.70;5.32;;;;;;;18.60;74.43;101628.75;2094126;28;20044;-73
2022/10/11 05:22:48;;;;;;;10.43;5.45;;;;;;;18.58;74.11;101635.88;2093274;28;20477;-73
2022/10/11 05:24:10;;;;;;;7.63;5.63;;;;;;;18.59;73.96;101643.00;2078590;28;20048;-73
2022/10/11 05:25:32;;;;;;;8.88;5.85;;;;;;;18.59;73.98;101642.13;2085491;28;20041;-73
2022/10/11 05:26:54;;;;;;;12.07;5.97;;;;;;;18.60;74.26;101639.44;2091195;28;20052;-73
2022/10/11 05:28:15;;;;;;;13.35;5.53;;;;;;;18.65;74.42;101648.34;2093427;28;20048;-73
2022/10/11 05:29:38;;;;;;;10.00;5.20;;;;;;;18.70;74.50;101648.34;2088030;28;20393;-73
2022/10/11 05:30:59;;;;;;;12.93;5.82;;;;;;;18.75;74.35;101646.53;2092238;28;20052;-73
2022/10/11 05:32:21;;;;;;;10.60;5.78;;;;;;;18.76;74.38;101642.09;2092613;28;20126;-73
2022/10/11 05:33:44;;;;;;;11.50;6.03;;;;;;;18.76;74.21;101644.75;2087264;28;20144;-73
2022/10/11 05:35:08;;;;;;;10.07;5.63;;;;;;;18.77;73.87;101646.53;2097060;28;20083;-73
2022/10/11 05:36:31;;;;;;;10.73;5.93;;;;;;;18.80;74.21;101644.72;2093337;28;20083;-73
2022/10/11 05:37:54;;;;;;;7.97;5.50;;;;;;;18.83;74.26;101644.72;2096204;28;20044;-73
2022/10/11 05:39:17;;;;;;;10.07;6.00;;;;;;;18.87;74.09;101653.63;2093735;28;20122;-73
2022/10/11 05:40:40;;;;;;;8.70;5.60;;;;;;;18.93;74.07;101646.47;2083781;28;20033;-73
2022/10/11 05:42:02;;;;;;;14.88;6.32;;;;;;;19.08;74.38;101659.78;2097574;28;20048;-73
2022/10/11 05:43:25;;;;;;;9.35;5.13;;;;;;;19.29;74.80;101665.91;2082773;28;20498;-73
2022/10/11 05:44:50;;;;;;;12.75;5.82;;;;;;;19.54;74.74;101656.84;2084791;28;20140;-73
2022/10/11 05:46:14;;;;;;;8.55;5.35;;;;;;;19.77;74.98;101660.25;2083165;28;20053;-73
2022/10/11 05:47:37;;;;;;;9.25;5.32;;;;;;;19.95;74.68;101658.34;2080001;28;20049;-72
2022/10/11 05:48:59;;;;;;;8.05;5.18;;;;;;;20.06;74.18;101654.66;2089474;28;20044;-72
2022/10/11 05:50:21;;;;;;;8.43;4.55;;;;;;;20.21;74.10;101659.00;2077139;28;20080;-73
2022/10/11 05:51:45;;;;;;;10.60;4.47;;;;;;;20.38;74.31;101664.19;2089895;28;20044;-73
2022/10/11 05:53:07;;;;;;;7.90;4.70;;;;;;;20.51;74.40;101664.06;2088442;28;20171;-73
2022/10/11 05:54:29;;;;;;;7.82;4.90;;;;;;;20.64;73.82;101656.75;2091367;28;20507;-73
2022/10/11 05:55:52;;;;;;;9.25;3.95;;;;;;;20.69;73.62;101647.75;2093702;28;20127;-73
2022/10/11 05:57:15;;;;;;;7.88;4.80;;;;;;;20.69;73.17;101649.53;2089113;28;20207;-73
2022/10/11 05:58:38;;;;;;;8.88;4.80;;;;;;;20.73;72.92;101650.41;2103512;28;20099;-73
2022/10/11 06:00:01;;;;;;;8.25;4.43;;;;;;;20.72;72.61;101649.53;2097322;28;20044;-73
2022/10/11 06:01:26;;;;;;;7.75;4.20;;;;;;;20.75;72.22;101646.78;2088722;28;20135;-73
2022/10/11 06:02:48;;;;;;;9.18;4.85;;;;;;;20.84;72.26;101649.38;2080552;28;20183;-72
2022/10/11 06:04:11;;;;;;;11.10;5.43;;;;;;;21.04;72.35;101655.38;2091906;28;20094;-73
2022/10/11 06:05:33;;;;;;;7.70;4.18;;;;;;;21.30;72.17;101646.09;2085487;28;20040;-73
2022/10/11 06:06:58;;;;;;;8.55;4.47;;;;;;;21.58;71.92;101660.03;2100798;28;20108;-73
2022/10/11 06:08:19;;;;;;;9.50;4.93;;;;;;;21.82;71.54;101652.44;2089482;28;20424;-73
2022/10/11 06:09:42;;;;;;;7.75;4.53;;;;;;;22.07;71.08;101663.69;2080525;28;20059;-73
2022/10/11 06:11:11;;;;;;;11.43;3.60;;;;;;;22.34;70.34;101664.13;2082995;28;20067;-73
2022/10/11 06:12:34;;;;;;;7.18;4.05;;;;;;;22.50;69.54;101658.44;2094508;28;20043;-73
2022/10/11 06:13:58;;;;;;;10.30;4.68;;;;;;;22.65;69.01;101657.22;2095086;28;20044;-74
2022/10/11 06:15:21;;;;;;;8.88;4.18;;;;;;;22.72;68.26;101658.88;2087176;28;20055;-73
2022/10/11 06:16:42;;;;;;;8.15;3.20;;;;;;;22.94;67.89;101662.06;2087095;28;20040;-73
2022/10/11 06:18:05;;;;;;;7.47;3.80;;;;;;;23.17;66.29;101659.75;2091068;28;20595;-74
2022/10/11 06:19:27;;;;;;;7.85;4.05;;;;;;;23.39;65.84;101657.47;2097818;28;20048;-73
2022/10/11 06:20:49;;;;;;;8.20;5.30;;;;;;;23.55;65.20;101658.94;2086890;28;20425;-74
2022/10/11 06:22:13;;;;;;;12.57;7.68;;;;;;;23.76;64.93;101658.41;2094293;28;20118;-74
2022/10/11 06:23:35;;;;;;;9.05;4.25;;;;;;;24.02;64.49;101659.59;2094348;28;20044;-73
2022/10/11 06:24:58;;;;;;;;;;;;;;;24.24;63.90;101655.41;2078753;28;20056;-73
2022/10/11 06:26:21;;;;;;;5.78;3.63;;;;;;;24.46;63.33;101656.63;2083818;28;19920;-74
2022/10/11 06:27:43;;;;;;;6.90;3.10;;;;;;;24.63;62.91;101650.72;2086709;28;20458;-74
2022/10/11 06:29:07;;;;;;;6.70;2.67;;;;;;;24.84;62.76;101651.94;2086577;28;20049;-74
2022/10/11 06:30:29;;;;;;;8.45;2.80;;;;;;;25.09;62.43;101646.72;2099922;28;20048;-73